METAR Data
IDs: Format: Raw Decoded Include TAF

Data at: 1103 UTC 25 Oct 2020

KTLH 251053Z 00000KT 3SM BR OVC001 18/18 A2990 RMK AO2 SLP123 T01830183